Aérodrome :







RETROUVEZ-NOUS SUR...

 
LOGIN :

S'inscrire | Disclaimer

   EN    FR    IT 

 









Légende :    VFR   VFR Marginal   IFR   IFR Intensif   IFR Très Intensif
Visi : 
Plafond : 
>= 8 km
>= 3000ft
5 à 8 km
1000 à 3000 ft
1500m à 5 km
500 à 1000 ft
800 à 1500m
200 à 500 ft
< 800m
< 200 ft
Symboles :   Orages  Brouillard  Fortes neiges  Fortes précipitations  Vent > 20 kt






- Altitude de l'aérodrome : 586 ft
- Code IATA : YRJ


CYRJ - Roberval

DERNIER METAR :
  • 171700Z 34008KT 40SM FEW039 M23/M29 A3063 RMK SC1 SLP399

METARs EXPIRÉS :
  • 171600Z 31011KT 40SM FEW047 M24/M29 A3065 RMK SC1 SLP404
  • 171500Z 30012KT 40SM FEW020 M25/M30 A3065 RMK SC1 SC TR SLP404

TAF TAF CYRJ
Valide du 17 à 13h jusqu'au 18 à 01h UTC


171238Z 1713/1801 30010KT P6SM FEW020
BECMG 1719/1721 30005KT RMK NXT FCST BY 172000Z



MET'MAP, la Météo Aéronautique d'un coup d'oeil ! - Copyright ORBIFLY Décembre 2007 - Disclaimer

ORBIFLY MET'MAP TEAM :

Programmation & Développement : Alexandra Zaïnal
Sur une idée originale de : Baudouin d'Aumeries
Assistance à la programmation : Marc-Olivier Méhu
Soutien technique & logistique : Manuel Goepfert

Contact : metmap@orbifly.com




SOURCES & CREDITS :

   NOAA